CYYJ/YYJ METAR and TAF weather

Enter ICAO airport designator
Station Type Date Time Source
CYYJ METAR 2021/05/15 23:00 UTC NOAA

CYYJ 152300Z 08007KT 050V120 30SM BKN250 20/09 A3005 RMK CI5 SLP179 DENSITY ALT 500FT


Station Type Date Time Source
CYYJ Decoded METAR 2021/05/15 23:00 UTC NOAA

Victoria Int. Airport, B. C., Canada (CYYJ) 48-39N 123-26W 19M
May 15, 2021 - 07:00 PM EDT / 2021.05.15 2300 UTC
Wind: from the E (080 degrees) at 8 MPH (7 KT) (direction variable):0
Visibility: 30 mile(s):0
Sky conditions: mostly cloudy
Temperature: 68 F (20 C)
Dew Point: 48 F (9 C)
Relative Humidity: 49%
Pressure (altimeter): 30.05 in. Hg (1017 hPa)
ob: CYYJ 152300Z 08007KT 050V120 30SM BKN250 20/09 A3005 RMK CI5 SLP179 DENSITY ALT 500FT
cycle: 23

Station Type Date Time Source
CYYJ TAF 2021/05/15 18:40 UTC NOAA

TAF CYYJ 151738Z 1518/1618 10007KT P6SM FEW240
FM160400 VRB03KT P6SM FEW040 SCT160
FM161200 VRB03KT P6SM SCT010
RMK NXT FCST BY 160000Z

Example: see airport list